sensor_id;sensor_type;location;lat;lon;timestamp;P1;durP1;ratioP1;P2;durP2;ratioP2
20423;SDS011;10371;49.042;8.002;2022-10-16T00:00:31;3.15;;;2.20;;
20423;SDS011;10371;49.042;8.002;2022-10-16T00:01:32;4.03;;;2.60;;
20423;SDS011;10371;49.042;8.002;2022-10-16T00:02:32;2.92;;;2.45;;
20423;SDS011;10371;49.042;8.002;2022-10-16T00:03:33;2.95;;;2.22;;
20423;SDS011;10371;49.042;8.002;2022-10-16T00:04:33;2.85;;;2.65;;
20423;SDS011;10371;49.042;8.002;2022-10-16T00:05:38;4.60;;;2.80;;
20423;SDS011;10371;49.042;8.002;2022-10-16T00:06:40;2.92;;;2.30;;
20423;SDS011;10371;49.042;8.002;2022-10-16T00:07:40;3.40;;;2.38;;
20423;SDS011;10371;49.042;8.002;2022-10-16T00:08:41;2.60;;;2.40;;
20423;SDS011;10371;49.042;8.002;2022-10-16T00:09:42;5.00;;;2.30;;
20423;SDS011;10371;49.042;8.002;2022-10-16T00:10:42;2.70;;;2.10;;
20423;SDS011;10371;49.042;8.002;2022-10-16T00:11:42;3.38;;;2.58;;
20423;SDS011;10371;49.042;8.002;2022-10-16T00:12:42;3.65;;;2.38;;
20423;SDS011;10371;49.042;8.002;2022-10-16T00:13:43;4.65;;;2.10;;
20423;SDS011;10371;49.042;8.002;2022-10-16T00:14:44;3.45;;;2.38;;
20423;SDS011;10371;49.042;8.002;2022-10-16T00:15:45;3.67;;;2.55;;
20423;SDS011;10371;49.042;8.002;2022-10-16T00:16:46;3.22;;;2.30;;
20423;SDS011;10371;49.042;8.002;2022-10-16T00:17:46;3.65;;;2.35;;
20423;SDS011;10371;49.042;8.002;2022-10-16T00:18:46;2.45;;;2.25;;
20423;SDS011;10371;49.042;8.002;2022-10-16T00:19:47;2.30;;;2.10;;
20423;SDS011;10371;49.042;8.002;2022-10-16T00:20:47;4.43;;;2.60;;
20423;SDS011;10371;49.042;8.002;2022-10-16T00:21:48;2.80;;;2.50;;
20423;SDS011;10371;49.042;8.002;2022-10-16T00:22:48;4.53;;;2.38;;
20423;SDS011;10371;49.042;8.002;2022-10-16T00:23:51;5.22;;;2.40;;
20423;SDS011;10371;49.042;8.002;2022-10-16T00:24:53;3.70;;;2.30;;
20423;SDS011;10371;49.042;8.002;2022-10-16T00:25:55;2.13;;;1.92;;
20423;SDS011;10371;49.042;8.002;2022-10-16T00:26:56;3.60;;;2.30;;
20423;SDS011;10371;49.042;8.002;2022-10-16T00:27:57;4.20;;;2.50;;
20423;SDS011;10371;49.042;8.002;2022-10-16T00:28:57;2.60;;;2.20;;
20423;SDS011;10371;49.042;8.002;2022-10-16T00:29:57;6.00;;;2.47;;
20423;SDS011;10371;49.042;8.002;2022-10-16T00:30:58;2.50;;;2.30;;
20423;SDS011;10371;49.042;8.002;2022-10-16T00:31:58;3.90;;;2.35;;
20423;SDS011;10371;49.042;8.002;2022-10-16T00:32:59;3.80;;;2.40;;
20423;SDS011;10371;49.042;8.002;2022-10-16T00:33:59;4.93;;;2.58;;
20423;SDS011;10371;49.042;8.002;2022-10-16T00:35:00;2.83;;;2.63;;
20423;SDS011;10371;49.042;8.002;2022-10-16T00:36:01;7.40;;;2.60;;
20423;SDS011;10371;49.042;8.002;2022-10-16T00:37:02;3.33;;;3.00;;
20423;SDS011;10371;49.042;8.002;2022-10-16T00:38:03;3.95;;;2.42;;
20423;SDS011;10371;49.042;8.002;2022-10-16T00:39:03;5.40;;;2.60;;
20423;SDS011;10371;49.042;8.002;2022-10-16T00:40:03;2.72;;;2.47;;
20423;SDS011;10371;49.042;8.002;2022-10-16T00:41:05;3.22;;;2.40;;
20423;SDS011;10371;49.042;8.002;2022-10-16T00:42:06;2.70;;;2.50;;
20423;SDS011;10371;49.042;8.002;2022-10-16T00:44:46;3.00;;;2.70;;
20423;SDS011;10371;49.042;8.002;2022-10-16T00:45:46;3.30;;;2.63;;
20423;SDS011;10371;49.042;8.002;2022-10-16T00:46:47;3.20;;;2.72;;
20423;SDS011;10371;49.042;8.002;2022-10-16T00:47:47;3.85;;;2.78;;
20423;SDS011;10371;49.042;8.002;2022-10-16T00:48:56;3.88;;;2.60;;
20423;SDS011;10371;49.042;8.002;2022-10-16T00:51:34;4.10;;;2.83;;
20423;SDS011;10371;49.042;8.002;2022-10-16T00:52:42;4.75;;;3.00;;
20423;SDS011;10371;49.042;8.002;2022-10-16T00:53:46;4.18;;;2.80;;
20423;SDS011;10371;49.042;8.002;2022-10-16T00:54:46;4.00;;;2.80;;
20423;SDS011;10371;49.042;8.002;2022-10-16T00:55:49;4.10;;;2.92;;
20423;SDS011;10371;49.042;8.002;2022-10-16T00:56:50;3.33;;;3.00;;
20423;SDS011;10371;49.042;8.002;2022-10-16T00:57:51;3.20;;;3.00;;
20423;SDS011;10371;49.042;8.002;2022-10-16T00:58:51;2.70;;;2.50;;
20423;SDS011;10371;49.042;8.002;2022-10-16T00:59:52;4.05;;;3.10;;
20423;SDS011;10371;49.042;8.002;2022-10-16T01:00:53;5.15;;;3.00;;
20423;SDS011;10371;49.042;8.002;2022-10-16T01:01:53;3.50;;;3.20;;
20423;SDS011;10371;49.042;8.002;2022-10-16T01:02:59;3.78;;;2.88;;
20423;SDS011;10371;49.042;8.002;2022-10-16T01:04:00;2.92;;;2.60;;
20423;SDS011;10371;49.042;8.002;2022-10-16T01:05:00;3.00;;;2.80;;
20423;SDS011;10371;49.042;8.002;2022-10-16T01:08:51;5.20;;;2.90;;
20423;SDS011;10371;49.042;8.002;2022-10-16T01:11:33;4.82;;;2.72;;
20423;SDS011;10371;49.042;8.002;2022-10-16T01:13:46;3.58;;;2.70;;
20423;SDS011;10371;49.042;8.002;2022-10-16T01:14:54;2.95;;;2.70;;
20423;SDS011;10371;49.042;8.002;2022-10-16T01:16:05;7.68;;;3.08;;
20423;SDS011;10371;49.042;8.002;2022-10-16T01:17:24;3.00;;;2.53;;
20423;SDS011;10371;49.042;8.002;2022-10-16T01:21:12;3.72;;;2.97;;
20423;SDS011;10371;49.042;8.002;2022-10-16T01:22:20;4.03;;;3.00;;
20423;SDS011;10371;49.042;8.002;2022-10-16T01:24:48;3.40;;;2.53;;
20423;SDS011;10371;49.042;8.002;2022-10-16T01:26:11;2.80;;;2.60;;
20423;SDS011;10371;49.042;8.002;2022-10-16T01:28:24;3.25;;;2.70;;
20423;SDS011;10371;49.042;8.002;2022-10-16T01:29:34;2.70;;;2.50;;
20423;SDS011;10371;49.042;8.002;2022-10-16T01:30:42;3.00;;;2.80;;
20423;SDS011;10371;49.042;8.002;2022-10-16T01:31:57;3.78;;;2.80;;
20423;SDS011;10371;49.042;8.002;2022-10-16T01:33:02;4.13;;;2.60;;
20423;SDS011;10371;49.042;8.002;2022-10-16T01:34:11;5.47;;;2.90;;
20423;SDS011;10371;49.042;8.002;2022-10-16T01:35:30;3.55;;;2.85;;
20423;SDS011;10371;49.042;8.002;2022-10-16T01:36:42;2.67;;;2.30;;
20423;SDS011;10371;49.042;8.002;2022-10-16T01:38:03;3.17;;;2.60;;
20423;SDS011;10371;49.042;8.002;2022-10-16T01:39:04;2.95;;;2.53;;
20423;SDS011;10371;49.042;8.002;2022-10-16T01:40:10;2.83;;;2.50;;
20423;SDS011;10371;49.042;8.002;2022-10-16T01:41:21;4.90;;;2.60;;
20423;SDS011;10371;49.042;8.002;2022-10-16T01:42:28;3.03;;;2.72;;
20423;SDS011;10371;49.042;8.002;2022-10-16T01:43:35;4.50;;;2.60;;
20423;SDS011;10371;49.042;8.002;2022-10-16T01:44:40;3.83;;;2.70;;
20423;SDS011;10371;49.042;8.002;2022-10-16T01:45:42;2.92;;;2.58;;
20423;SDS011;10371;49.042;8.002;2022-10-16T01:46:46;3.30;;;2.90;;
20423;SDS011;10371;49.042;8.002;2022-10-16T01:47:50;2.92;;;2.70;;
20423;SDS011;10371;49.042;8.002;2022-10-16T01:48:52;4.00;;;2.28;;
20423;SDS011;10371;49.042;8.002;2022-10-16T01:49:53;4.25;;;2.50;;
20423;SDS011;10371;49.042;8.002;2022-10-16T01:50:58;4.50;;;2.53;;
20423;SDS011;10371;49.042;8.002;2022-10-16T01:52:05;2.97;;;2.30;;
20423;SDS011;10371;49.042;8.002;2022-10-16T01:53:08;3.45;;;2.60;;
20423;SDS011;10371;49.042;8.002;2022-10-16T01:54:12;4.53;;;2.80;;
20423;SDS011;10371;49.042;8.002;2022-10-16T01:55:18;3.13;;;2.35;;
20423;SDS011;10371;49.042;8.002;2022-10-16T01:56:24;2.70;;;2.50;;
20423;SDS011;10371;49.042;8.002;2022-10-16T01:57:25;2.45;;;2.25;;
20423;SDS011;10371;49.042;8.002;2022-10-16T01:58:28;3.17;;;2.60;;
20423;SDS011;10371;49.042;8.002;2022-10-16T01:59:35;2.70;;;2.50;;
20423;SDS011;10371;49.042;8.002;2022-10-16T02:00:41;2.95;;;2.38;;
20423;SDS011;10371;49.042;8.002;2022-10-16T02:01:45;2.78;;;2.58;;
20423;SDS011;10371;49.042;8.002;2022-10-16T02:02:51;3.70;;;2.60;;
20423;SDS011;10371;49.042;8.002;2022-10-16T02:03:55;2.65;;;2.25;;
20423;SDS011;10371;49.042;8.002;2022-10-16T02:05:02;2.65;;;2.35;;
20423;SDS011;10371;49.042;8.002;2022-10-16T02:06:11;4.72;;;2.83;;
20423;SDS011;10371;49.042;8.002;2022-10-16T02:07:11;2.28;;;2.00;;
20423;SDS011;10371;49.042;8.002;2022-10-16T02:08:12;2.30;;;2.20;;
20423;SDS011;10371;49.042;8.002;2022-10-16T02:09:13;3.55;;;2.33;;
20423;SDS011;10371;49.042;8.002;2022-10-16T02:10:16;2.45;;;2.10;;
20423;SDS011;10371;49.042;8.002;2022-10-16T02:11:18;2.47;;;2.28;;
20423;SDS011;10371;49.042;8.002;2022-10-16T02:12:20;2.40;;;2.10;;
20423;SDS011;10371;49.042;8.002;2022-10-16T02:13:29;3.33;;;2.40;;
20423;SDS011;10371;49.042;8.002;2022-10-16T02:14:32;4.13;;;2.25;;
20423;SDS011;10371;49.042;8.002;2022-10-16T02:15:33;3.35;;;2.25;;
20423;SDS011;10371;49.042;8.002;2022-10-16T02:16:34;2.75;;;2.30;;
20423;SDS011;10371;49.042;8.002;2022-10-16T02:17:37;2.38;;;2.13;;
20423;SDS011;10371;49.042;8.002;2022-10-16T02:18:38;2.88;;;2.35;;
20423;SDS011;10371;49.042;8.002;2022-10-16T02:19:38;3.90;;;2.35;;
20423;SDS011;10371;49.042;8.002;2022-10-16T02:20:51;2.97;;;2.20;;
20423;SDS011;10371;49.042;8.002;2022-10-16T02:21:58;3.95;;;2.80;;
20423;SDS011;10371;49.042;8.002;2022-10-16T02:23:00;4.10;;;2.65;;
20423;SDS011;10371;49.042;8.002;2022-10-16T02:24:06;4.05;;;2.40;;
20423;SDS011;10371;49.042;8.002;2022-10-16T02:25:22;2.53;;;2.20;;
20423;SDS011;10371;49.042;8.002;2022-10-16T02:26:35;2.80;;;2.60;;
20423;SDS011;10371;49.042;8.002;2022-10-16T02:29:00;3.75;;;2.70;;
20423;SDS011;10371;49.042;8.002;2022-10-16T02:30:06;4.40;;;2.30;;
20423;SDS011;10371;49.042;8.002;2022-10-16T02:31:11;5.35;;;2.60;;
20423;SDS011;10371;49.042;8.002;2022-10-16T02:32:17;2.40;;;2.20;;
20423;SDS011;10371;49.042;8.002;2022-10-16T02:33:24;2.33;;;2.13;;
20423;SDS011;10371;49.042;8.002;2022-10-16T02:34:27;3.90;;;2.13;;
20423;SDS011;10371;49.042;8.002;2022-10-16T02:35:30;6.05;;;2.53;;
20423;SDS011;10371;49.042;8.002;2022-10-16T02:36:32;3.00;;;2.50;;
20423;SDS011;10371;49.042;8.002;2022-10-16T02:37:35;2.40;;;2.20;;
20423;SDS011;10371;49.042;8.002;2022-10-16T02:38:38;2.35;;;2.15;;
20423;SDS011;10371;49.042;8.002;2022-10-16T02:39:40;2.70;;;2.50;;
20423;SDS011;10371;49.042;8.002;2022-10-16T02:40:41;3.22;;;2.38;;
20423;SDS011;10371;49.042;8.002;2022-10-16T02:41:42;3.45;;;2.25;;
20423;SDS011;10371;49.042;8.002;2022-10-16T02:42:43;3.45;;;2.33;;
20423;SDS011;10371;49.042;8.002;2022-10-16T02:43:43;2.78;;;2.47;;
20423;SDS011;10371;49.042;8.002;2022-10-16T02:44:44;3.20;;;2.40;;
20423;SDS011;10371;49.042;8.002;2022-10-16T02:45:44;3.35;;;2.47;;
20423;SDS011;10371;49.042;8.002;2022-10-16T02:46:44;3.03;;;2.58;;
20423;SDS011;10371;49.042;8.002;2022-10-16T02:47:45;4.43;;;2.33;;
20423;SDS011;10371;49.042;8.002;2022-10-16T02:48:45;5.78;;;2.83;;
20423;SDS011;10371;49.042;8.002;2022-10-16T02:49:45;2.60;;;2.40;;
20423;SDS011;10371;49.042;8.002;2022-10-16T02:50:46;2.53;;;2.33;;
20423;SDS011;10371;49.042;8.002;2022-10-16T02:51:46;3.67;;;2.60;;
20423;SDS011;10371;49.042;8.002;2022-10-16T02:52:46;2.78;;;2.35;;
20423;SDS011;10371;49.042;8.002;2022-10-16T02:53:46;3.92;;;2.20;;
20423;SDS011;10371;49.042;8.002;2022-10-16T02:54:47;2.70;;;2.47;;
20423;SDS011;10371;49.042;8.002;2022-10-16T02:55:47;2.60;;;2.25;;
20423;SDS011;10371;49.042;8.002;2022-10-16T02:56:48;2.92;;;2.28;;
20423;SDS011;10371;49.042;8.002;2022-10-16T02:57:48;2.50;;;2.30;;
20423;SDS011;10371;49.042;8.002;2022-10-16T02:58:48;3.55;;;2.50;;
20423;SDS011;10371;49.042;8.002;2022-10-16T02:59:48;2.15;;;2.00;;
20423;SDS011;10371;49.042;8.002;2022-10-16T03:00:49;2.70;;;2.35;;
20423;SDS011;10371;49.042;8.002;2022-10-16T03:01:49;3.55;;;2.10;;
20423;SDS011;10371;49.042;8.002;2022-10-16T03:02:49;2.47;;;2.28;;
20423;SDS011;10371;49.042;8.002;2022-10-16T03:03:50;2.40;;;2.20;;
20423;SDS011;10371;49.042;8.002;2022-10-16T03:04:50;3.53;;;2.28;;
20423;SDS011;10371;49.042;8.002;2022-10-16T03:05:50;5.13;;;2.40;;
20423;SDS011;10371;49.042;8.002;2022-10-16T03:06:51;2.63;;;2.38;;
20423;SDS011;10371;49.042;8.002;2022-10-16T03:07:51;2.60;;;2.40;;
20423;SDS011;10371;49.042;8.002;2022-10-16T03:08:52;2.50;;;2.30;;
20423;SDS011;10371;49.042;8.002;2022-10-16T03:09:52;2.67;;;2.20;;
20423;SDS011;10371;49.042;8.002;2022-10-16T03:10:54;3.55;;;2.40;;
20423;SDS011;10371;49.042;8.002;2022-10-16T03:11:54;2.72;;;2.53;;
20423;SDS011;10371;49.042;8.002;2022-10-16T03:12:55;2.28;;;2.17;;
20423;SDS011;10371;49.042;8.002;2022-10-16T03:13:55;4.07;;;2.75;;
20423;SDS011;10371;49.042;8.002;2022-10-16T03:14:56;3.28;;;2.97;;
20423;SDS011;10371;49.042;8.002;2022-10-16T03:15:56;2.80;;;2.60;;
20423;SDS011;10371;49.042;8.002;2022-10-16T03:16:57;3.85;;;2.97;;
20423;SDS011;10371;49.042;8.002;2022-10-16T03:17:57;3.28;;;2.65;;
20423;SDS011;10371;49.042;8.002;2022-10-16T03:18:58;2.78;;;2.58;;
20423;SDS011;10371;49.042;8.002;2022-10-16T03:19:58;4.03;;;2.72;;
20423;SDS011;10371;49.042;8.002;2022-10-16T03:20:59;3.50;;;2.67;;
20423;SDS011;10371;49.042;8.002;2022-10-16T03:21:59;7.55;;;2.45;;
20423;SDS011;10371;49.042;8.002;2022-10-16T03:22:59;3.10;;;2.30;;
20423;SDS011;10371;49.042;8.002;2022-10-16T03:23:59;2.42;;;2.28;;
20423;SDS011;10371;49.042;8.002;2022-10-16T03:25:00;2.90;;;2.70;;
20423;SDS011;10371;49.042;8.002;2022-10-16T03:26:00;2.83;;;2.45;;
20423;SDS011;10371;49.042;8.002;2022-10-16T03:27:01;2.92;;;2.63;;
20423;SDS011;10371;49.042;8.002;2022-10-16T03:28:02;3.00;;;2.80;;
20423;SDS011;10371;49.042;8.002;2022-10-16T03:29:03;2.70;;;2.50;;
20423;SDS011;10371;49.042;8.002;2022-10-16T03:30:03;2.55;;;2.40;;
20423;SDS011;10371;49.042;8.002;2022-10-16T03:31:04;3.03;;;2.83;;
20423;SDS011;10371;49.042;8.002;2022-10-16T03:32:04;2.33;;;2.13;;
20423;SDS011;10371;49.042;8.002;2022-10-16T03:33:05;2.60;;;2.40;;
20423;SDS011;10371;49.042;8.002;2022-10-16T03:34:05;2.45;;;2.25;;
20423;SDS011;10371;49.042;8.002;2022-10-16T03:35:06;4.70;;;2.72;;
20423;SDS011;10371;49.042;8.002;2022-10-16T03:36:06;3.50;;;2.72;;
20423;SDS011;10371;49.042;8.002;2022-10-16T03:37:07;2.67;;;2.47;;
20423;SDS011;10371;49.042;8.002;2022-10-16T03:38:07;2.80;;;2.60;;
20423;SDS011;10371;49.042;8.002;2022-10-16T03:39:07;2.92;;;2.20;;
20423;SDS011;10371;49.042;8.002;2022-10-16T03:40:08;2.65;;;2.45;;
20423;SDS011;10371;49.042;8.002;2022-10-16T03:41:08;2.83;;;2.30;;
20423;SDS011;10371;49.042;8.002;2022-10-16T03:42:08;2.42;;;2.22;;
20423;SDS011;10371;49.042;8.002;2022-10-16T03:43:09;2.65;;;2.45;;
20423;SDS011;10371;49.042;8.002;2022-10-16T03:44:09;2.83;;;2.33;;
20423;SDS011;10371;49.042;8.002;2022-10-16T03:45:10;2.50;;;2.30;;
20423;SDS011;10371;49.042;8.002;2022-10-16T03:46:11;2.78;;;2.40;;
20423;SDS011;10371;49.042;8.002;2022-10-16T03:47:11;2.72;;;2.28;;
20423;SDS011;10371;49.042;8.002;2022-10-16T03:48:12;2.40;;;2.20;;
20423;SDS011;10371;49.042;8.002;2022-10-16T03:49:12;2.60;;;2.30;;
20423;SDS011;10371;49.042;8.002;2022-10-16T03:50:12;3.13;;;2.22;;
20423;SDS011;10371;49.042;8.002;2022-10-16T03:51:13;3.80;;;1.98;;
20423;SDS011;10371;49.042;8.002;2022-10-16T03:52:13;2.67;;;2.00;;
20423;SDS011;10371;49.042;8.002;2022-10-16T03:53:14;3.05;;;2.30;;
20423;SDS011;10371;49.042;8.002;2022-10-16T03:54:14;3.42;;;2.22;;
20423;SDS011;10371;49.042;8.002;2022-10-16T03:55:15;2.47;;;2.20;;
20423;SDS011;10371;49.042;8.002;2022-10-16T03:56:15;2.50;;;2.30;;
20423;SDS011;10371;49.042;8.002;2022-10-16T03:57:15;3.72;;;2.60;;
20423;SDS011;10371;49.042;8.002;2022-10-16T03:58:16;2.42;;;2.22;;
20423;SDS011;10371;49.042;8.002;2022-10-16T03:59:16;2.35;;;2.15;;
20423;SDS011;10371;49.042;8.002;2022-10-16T04:00:16;2.70;;;2.50;;
20423;SDS011;10371;49.042;8.002;2022-10-16T04:01:17;2.95;;;2.28;;
20423;SDS011;10371;49.042;8.002;2022-10-16T04:02:17;2.63;;;2.22;;
20423;SDS011;10371;49.042;8.002;2022-10-16T04:03:18;3.25;;;2.22;;
20423;SDS011;10371;49.042;8.002;2022-10-16T04:04:19;3.40;;;2.38;;
20423;SDS011;10371;49.042;8.002;2022-10-16T04:05:19;3.00;;;2.40;;
20423;SDS011;10371;49.042;8.002;2022-10-16T04:06:19;2.95;;;2.10;;
20423;SDS011;10371;49.042;8.002;2022-10-16T04:07:19;3.45;;;2.60;;
20423;SDS011;10371;49.042;8.002;2022-10-16T04:08:20;3.05;;;2.40;;
20423;SDS011;10371;49.042;8.002;2022-10-16T04:09:21;3.40;;;2.40;;
20423;SDS011;10371;49.042;8.002;2022-10-16T04:10:21;4.75;;;2.30;;
20423;SDS011;10371;49.042;8.002;2022-10-16T04:11:21;3.90;;;2.35;;
20423;SDS011;10371;49.042;8.002;2022-10-16T04:12:21;3.53;;;2.50;;
20423;SDS011;10371;49.042;8.002;2022-10-16T04:13:22;4.47;;;2.35;;
20423;SDS011;10371;49.042;8.002;2022-10-16T04:14:22;2.28;;;2.08;;
20423;SDS011;10371;49.042;8.002;2022-10-16T04:15:23;2.38;;;2.15;;
20423;SDS011;10371;49.042;8.002;2022-10-16T04:16:23;3.05;;;2.10;;
20423;SDS011;10371;49.042;8.002;2022-10-16T04:17:24;3.30;;;2.67;;
20423;SDS011;10371;49.042;8.002;2022-10-16T04:18:24;3.70;;;2.20;;
20423;SDS011;10371;49.042;8.002;2022-10-16T04:19:27;2.70;;;2.50;;
20423;SDS011;10371;49.042;8.002;2022-10-16T04:20:27;2.40;;;2.20;;
20423;SDS011;10371;49.042;8.002;2022-10-16T04:21:27;2.92;;;2.30;;
20423;SDS011;10371;49.042;8.002;2022-10-16T04:22:27;4.85;;;2.38;;
20423;SDS011;10371;49.042;8.002;2022-10-16T04:23:28;3.13;;;2.55;;
20423;SDS011;10371;49.042;8.002;2022-10-16T04:24:28;2.60;;;2.40;;
20423;SDS011;10371;49.042;8.002;2022-10-16T04:25:28;2.95;;;2.28;;
20423;SDS011;10371;49.042;8.002;2022-10-16T04:26:30;4.13;;;2.30;;
20423;SDS011;10371;49.042;8.002;2022-10-16T04:27:30;4.22;;;2.70;;
20423;SDS011;10371;49.042;8.002;2022-10-16T04:28:31;2.60;;;2.40;;
20423;SDS011;10371;49.042;8.002;2022-10-16T04:29:31;2.72;;;2.53;;
20423;SDS011;10371;49.042;8.002;2022-10-16T04:30:31;2.05;;;1.95;;
20423;SDS011;10371;49.042;8.002;2022-10-16T04:31:33;3.75;;;2.47;;
20423;SDS011;10371;49.042;8.002;2022-10-16T04:32:34;3.20;;;2.47;;
20423;SDS011;10371;49.042;8.002;2022-10-16T04:33:34;2.50;;;2.30;;
20423;SDS011;10371;49.042;8.002;2022-10-16T04:34:35;3.55;;;2.30;;
20423;SDS011;10371;49.042;8.002;2022-10-16T04:35:35;2.80;;;2.60;;
20423;SDS011;10371;49.042;8.002;2022-10-16T04:36:35;3.47;;;2.38;;
20423;SDS011;10371;49.042;8.002;2022-10-16T04:37:36;3.58;;;2.70;;
20423;SDS011;10371;49.042;8.002;2022-10-16T04:38:36;4.25;;;2.42;;
20423;SDS011;10371;49.042;8.002;2022-10-16T04:39:37;3.53;;;2.50;;
20423;SDS011;10371;49.042;8.002;2022-10-16T04:40:37;3.05;;;2.50;;
20423;SDS011;10371;49.042;8.002;2022-10-16T04:41:37;2.72;;;2.53;;
20423;SDS011;10371;49.042;8.002;2022-10-16T04:42:38;3.58;;;2.42;;
20423;SDS011;10371;49.042;8.002;2022-10-16T04:43:38;2.80;;;2.60;;
20423;SDS011;10371;49.042;8.002;2022-10-16T04:44:39;2.70;;;2.47;;
20423;SDS011;10371;49.042;8.002;2022-10-16T04:45:39;2.55;;;2.35;;
20423;SDS011;10371;49.042;8.002;2022-10-16T04:46:39;2.50;;;2.30;;
20423;SDS011;10371;49.042;8.002;2022-10-16T04:47:39;3.50;;;3.00;;
20423;SDS011;10371;49.042;8.002;2022-10-16T04:48:40;3.65;;;2.38;;
20423;SDS011;10371;49.042;8.002;2022-10-16T04:49:40;2.67;;;2.47;;
20423;SDS011;10371;49.042;8.002;2022-10-16T04:50:40;2.40;;;2.20;;
20423;SDS011;10371;49.042;8.002;2022-10-16T04:51:41;2.70;;;2.50;;
20423;SDS011;10371;49.042;8.002;2022-10-16T04:52:41;3.88;;;2.70;;
20423;SDS011;10371;49.042;8.002;2022-10-16T04:53:42;3.17;;;2.60;;
20423;SDS011;10371;49.042;8.002;2022-10-16T04:54:42;2.78;;;2.58;;
20423;SDS011;10371;49.042;8.002;2022-10-16T04:55:44;3.15;;;2.60;;
20423;SDS011;10371;49.042;8.002;2022-10-16T04:56:45;2.90;;;2.70;;
20423;SDS011;10371;49.042;8.002;2022-10-16T04:57:50;3.70;;;2.30;;
20423;SDS011;10371;49.042;8.002;2022-10-16T04:58:51;2.80;;;2.60;;
20423;SDS011;10371;49.042;8.002;2022-10-16T04:59:51;2.78;;;2.53;;
20423;SDS011;10371;49.042;8.002;2022-10-16T05:00:51;3.55;;;2.70;;
20423;SDS011;10371;49.042;8.002;2022-10-16T05:01:51;3.78;;;3.22;;
20423;SDS011;10371;49.042;8.002;2022-10-16T05:02:52;2.85;;;2.60;;
20423;SDS011;10371;49.042;8.002;2022-10-16T05:03:52;2.90;;;2.70;;
20423;SDS011;10371;49.042;8.002;2022-10-16T05:04:53;2.90;;;2.70;;
20423;SDS011;10371;49.042;8.002;2022-10-16T05:05:53;3.70;;;2.95;;
20423;SDS011;10371;49.042;8.002;2022-10-16T05:06:54;3.75;;;3.10;;
20423;SDS011;10371;49.042;8.002;2022-10-16T05:07:54;3.10;;;2.80;;
20423;SDS011;10371;49.042;8.002;2022-10-16T05:08:54;2.80;;;2.60;;
20423;SDS011;10371;49.042;8.002;2022-10-16T05:09:55;5.22;;;3.03;;
20423;SDS011;10371;49.042;8.002;2022-10-16T05:10:55;3.65;;;3.20;;
20423;SDS011;10371;49.042;8.002;2022-10-16T05:11:55;5.20;;;3.80;;
20423;SDS011;10371;49.042;8.002;2022-10-16T05:12:56;8.82;;;4.20;;
20423;SDS011;10371;49.042;8.002;2022-10-16T05:13:56;5.63;;;3.75;;
20423;SDS011;10371;49.042;8.002;2022-10-16T05:14:56;8.55;;;3.75;;
20423;SDS011;10371;49.042;8.002;2022-10-16T05:15:58;4.68;;;3.28;;
20423;SDS011;10371;49.042;8.002;2022-10-16T05:16:59;3.58;;;2.97;;
20423;SDS011;10371;49.042;8.002;2022-10-16T05:17:59;5.43;;;3.33;;
20423;SDS011;10371;49.042;8.002;2022-10-16T05:19:00;4.80;;;3.28;;
20423;SDS011;10371;49.042;8.002;2022-10-16T05:20:01;3.50;;;3.20;;
20423;SDS011;10371;49.042;8.002;2022-10-16T05:21:01;3.60;;;2.90;;
20423;SDS011;10371;49.042;8.002;2022-10-16T05:22:02;3.55;;;3.22;;
20423;SDS011;10371;49.042;8.002;2022-10-16T05:23:03;3.83;;;3.35;;
20423;SDS011;10371;49.042;8.002;2022-10-16T05:24:03;3.88;;;3.58;;
20423;SDS011;10371;49.042;8.002;2022-10-16T05:25:04;3.97;;;3.55;;
20423;SDS011;10371;49.042;8.002;2022-10-16T05:26:04;4.25;;;3.95;;
20423;SDS011;10371;49.042;8.002;2022-10-16T05:27:05;4.50;;;3.42;;
20423;SDS011;10371;49.042;8.002;2022-10-16T05:28:05;4.07;;;3.47;;
20423;SDS011;10371;49.042;8.002;2022-10-16T05:29:05;4.35;;;3.60;;
20423;SDS011;10371;49.042;8.002;2022-10-16T05:30:06;3.88;;;3.25;;
20423;SDS011;10371;49.042;8.002;2022-10-16T05:31:07;3.08;;;2.88;;
20423;SDS011;10371;49.042;8.002;2022-10-16T05:32:09;3.53;;;3.22;;
20423;SDS011;10371;49.042;8.002;2022-10-16T05:33:09;3.35;;;3.05;;
20423;SDS011;10371;49.042;8.002;2022-10-16T05:34:09;3.78;;;3.30;;
20423;SDS011;10371;49.042;8.002;2022-10-16T05:35:10;3.20;;;2.90;;
20423;SDS011;10371;49.042;8.002;2022-10-16T05:36:10;4.28;;;3.35;;
20423;SDS011;10371;49.042;8.002;2022-10-16T05:37:11;4.70;;;3.30;;
20423;SDS011;10371;49.042;8.002;2022-10-16T05:38:11;4.00;;;3.55;;
20423;SDS011;10371;49.042;8.002;2022-10-16T05:39:12;4.63;;;3.60;;
20423;SDS011;10371;49.042;8.002;2022-10-16T05:40:15;3.70;;;3.03;;
20423;SDS011;10371;49.042;8.002;2022-10-16T05:41:16;3.45;;;3.17;;
20423;SDS011;10371;49.042;8.002;2022-10-16T05:42:21;5.10;;;3.20;;
20423;SDS011;10371;49.042;8.002;2022-10-16T05:43:21;3.38;;;3.08;;
20423;SDS011;10371;49.042;8.002;2022-10-16T05:44:22;3.42;;;3.13;;
20423;SDS011;10371;49.042;8.002;2022-10-16T05:45:22;3.50;;;3.20;;
20423;SDS011;10371;49.042;8.002;2022-10-16T05:46:22;5.70;;;3.85;;
20423;SDS011;10371;49.042;8.002;2022-10-16T05:47:23;4.78;;;3.58;;
20423;SDS011;10371;49.042;8.002;2022-10-16T05:48:23;3.67;;;3.38;;
20423;SDS011;10371;49.042;8.002;2022-10-16T05:49:24;3.25;;;3.05;;
20423;SDS011;10371;49.042;8.002;2022-10-16T05:50:25;3.95;;;3.42;;
20423;SDS011;10371;49.042;8.002;2022-10-16T05:51:25;6.53;;;3.80;;
20423;SDS011;10371;49.042;8.002;2022-10-16T05:52:26;3.80;;;3.50;;
20423;SDS011;10371;49.042;8.002;2022-10-16T05:53:27;3.97;;;3.50;;
20423;SDS011;10371;49.042;8.002;2022-10-16T05:54:29;3.80;;;3.42;;
20423;SDS011;10371;49.042;8.002;2022-10-16T05:55:29;4.07;;;3.35;;
20423;SDS011;10371;49.042;8.002;2022-10-16T05:56:29;4.85;;;3.80;;
20423;SDS011;10371;49.042;8.002;2022-10-16T05:57:30;4.03;;;3.63;;
20423;SDS011;10371;49.042;8.002;2022-10-16T05:58:31;5.65;;;3.70;;
20423;SDS011;10371;49.042;8.002;2022-10-16T05:59:33;3.88;;;3.58;;
20423;SDS011;10371;49.042;8.002;2022-10-16T06:00:33;4.53;;;3.90;;
20423;SDS011;10371;49.042;8.002;2022-10-16T06:01:34;4.45;;;3.75;;
20423;SDS011;10371;49.042;8.002;2022-10-16T06:02:35;4.53;;;3.75;;
20423;SDS011;10371;49.042;8.002;2022-10-16T06:03:35;7.55;;;3.72;;
20423;SDS011;10371;49.042;8.002;2022-10-16T06:04:35;4.00;;;3.70;;
20423;SDS011;10371;49.042;8.002;2022-10-16T06:05:36;3.75;;;3.45;;
20423;SDS011;10371;49.042;8.002;2022-10-16T06:06:36;3.75;;;3.42;;
20423;SDS011;10371;49.042;8.002;2022-10-16T06:07:36;4.72;;;4.10;;
20423;SDS011;10371;49.042;8.002;2022-10-16T06:08:37;7.18;;;4.40;;
20423;SDS011;10371;49.042;8.002;2022-10-16T06:09:37;5.43;;;4.88;;
20423;SDS011;10371;49.042;8.002;2022-10-16T06:10:38;5.43;;;4.88;;
20423;SDS011;10371;49.042;8.002;2022-10-16T06:11:38;5.47;;;5.00;;
20423;SDS011;10371;49.042;8.002;2022-10-16T06:12:38;6.45;;;4.72;;
20423;SDS011;10371;49.042;8.002;2022-10-16T06:13:39;6.50;;;5.00;;
20423;SDS011;10371;49.042;8.002;2022-10-16T06:14:41;5.35;;;4.68;;
20423;SDS011;10371;49.042;8.002;2022-10-16T06:15:42;5.50;;;5.07;;
20423;SDS011;10371;49.042;8.002;2022-10-16T06:16:42;8.32;;;5.00;;
20423;SDS011;10371;49.042;8.002;2022-10-16T06:17:43;6.32;;;5.75;;
20423;SDS011;10371;49.042;8.002;2022-10-16T06:18:43;9.13;;;7.72;;
20423;SDS011;10371;49.042;8.002;2022-10-16T06:19:43;10.70;;;7.25;;
20423;SDS011;10371;49.042;8.002;2022-10-16T06:20:44;8.27;;;7.40;;
20423;SDS011;10371;49.042;8.002;2022-10-16T06:21:44;10.57;;;6.55;;
20423;SDS011;10371;49.042;8.002;2022-10-16T06:22:44;7.78;;;6.60;;
20423;SDS011;10371;49.042;8.002;2022-10-16T06:23:44;8.27;;;7.43;;
20423;SDS011;10371;49.042;8.002;2022-10-16T06:24:47;7.40;;;6.70;;
20423;SDS011;10371;49.042;8.002;2022-10-16T06:25:49;8.70;;;6.97;;
20423;SDS011;10371;49.042;8.002;2022-10-16T06:26:50;9.05;;;7.10;;
20423;SDS011;10371;49.042;8.002;2022-10-16T06:27:50;7.80;;;6.82;;